Time;durP1;ratioP1;P1;durP2;ratioP2;P2;SDS_P1;SDS_P2;PMS_P1;PMS_P2;Temp;Humidity;BMP_temperature;BMP_pressure;BME280_temperature;BME280_humidity;BME280_pressure;Samples;Min_cycle;Max_cycle;Signal;HPM_P1;HPM_P2
2022/05/26 03:01:50;;;;;;;0.30;0.20;;;25.30;42.50;;;;;;5369819;23;46228;-65
2022/05/26 03:04:17;;;;;;;0.40;0.38;;;25.30;42.50;;;;;;4949004;28;45029;-65
2022/05/26 03:06:54;;;;;;;0.77;0.40;;;25.30;42.50;;;;;;4965633;28;46880;-65
2022/05/26 03:09:20;;;;;;;0.40;0.30;;;25.40;42.60;;;;;;4965426;28;45518;-64
2022/05/26 03:11:53;;;;;;;0.30;0.20;;;25.30;42.50;;;;;;4931693;28;45123;-65
2022/05/26 03:14:19;;;;;;;0.50;0.20;;;25.30;42.50;;;;;;4941118;28;45193;-65
2022/05/26 03:16:45;;;;;;;0.50;0.30;;;25.30;42.50;;;;;;4924628;28;46304;-65
2022/05/26 03:19:11;;;;;;;0.47;0.20;;;25.30;42.60;;;;;;4939843;28;45097;-65
2022/05/26 03:21:37;;;;;;;0.20;0.20;;;25.30;42.60;;;;;;4944174;28;45590;-65
2022/05/26 03:24:03;;;;;;;0.47;0.13;;;25.30;42.60;;;;;;4925524;28;45296;-65
2022/05/26 03:26:29;;;;;;;0.25;0.20;;;25.30;42.60;;;;;;4937988;28;45738;-65
2022/05/26 03:28:55;;;;;;;0.15;0.15;;;25.30;42.60;;;;;;4957054;28;45254;-65
2022/05/26 03:31:20;;;;;;;0.40;0.20;;;25.30;42.60;;;;;;4940324;28;45538;-65
2022/05/26 03:41:59;;;;;;;2.40;0.30;;;25.30;42.60;;;;;;4934286;28;44912;-65
2022/05/26 03:44:25;;;;;;;0.50;0.20;;;25.30;42.60;;;;;;4948268;28;44858;-66
2022/05/26 03:46:51;;;;;;;0.45;0.20;;;25.30;42.60;;;;;;4925697;28;44924;-65
2022/05/26 03:49:17;;;;;;;0.25;0.20;;;25.30;42.70;;;;;;4940375;28;44993;-65
2022/05/26 03:51:43;;;;;;;0.65;0.20;;;25.30;42.70;;;;;;4939140;28;44993;-65
2022/05/26 03:54:08;;;;;;;1.63;0.30;;;25.30;42.70;;;;;;4939891;28;44998;-65
2022/05/26 03:56:34;;;;;;;0.30;0.30;;;25.30;42.70;;;;;;4957272;28;45281;-65
2022/05/26 03:59:00;;;;;;;0.50;0.20;;;25.20;42.60;;;;;;4938942;28;45813;-65
2022/05/26 04:01:27;;;;;;;0.47;0.10;;;25.20;42.70;;;;;;4938578;28;44887;-65
2022/05/26 04:03:52;;;;;;;0.30;0.30;;;25.20;42.60;;;;;;4932398;28;45115;-65
2022/05/26 04:06:18;;;;;;;0.15;0.15;;;25.30;42.70;;;;;;4956658;28;45396;-65
2022/05/26 04:08:44;;;;;;;0.45;0.20;;;25.30;42.70;;;;;;4938114;28;45249;-65
2022/05/26 04:11:10;;;;;;;0.20;0.20;;;25.30;42.70;;;;;;4939566;28;44695;-65
2022/05/26 04:13:35;;;;;;;0.20;0.20;;;25.20;42.70;;;;;;4941038;28;45595;-65
2022/05/26 04:16:01;;;;;;;0.20;0.20;;;25.30;42.80;;;;;;4945974;28;45399;-65
2022/05/26 04:18:27;;;;;;;0.50;0.25;;;25.20;42.70;;;;;;4951896;28;45211;-64
2022/05/26 04:21:01;;;;;;;0.20;0.20;;;25.20;42.70;;;;;;4955182;28;45213;-65
2022/05/26 04:23:27;;;;;;;0.63;0.10;;;25.20;42.70;;;;;;4937434;28;45118;-65
2022/05/26 04:25:52;;;;;;;0.38;0.28;;;25.20;42.80;;;;;;4940105;28;44971;-65
2022/05/26 04:28:18;;;;;;;0.30;0.20;;;25.20;42.80;;;;;;4940374;28;45249;-65
2022/05/26 04:30:43;;;;;;;0.55;0.30;;;25.20;42.80;;;;;;4955028;28;45216;-64
2022/05/26 04:33:09;;;;;;;0.20;0.20;;;25.20;42.80;;;;;;4940201;28;44925;-65
2022/05/26 04:35:34;;;;;;;0.25;0.20;;;25.20;42.80;;;;;;4955966;28;46852;-65
2022/05/26 04:38:00;;;;;;;0.10;0.10;;;25.20;42.80;;;;;;4955979;28;45605;-65
2022/05/26 04:40:25;;;;;;;0.28;0.20;;;25.20;42.80;;;;;;4943148;28;45277;-65
2022/05/26 04:42:53;;;;;;;0.30;0.20;;;25.20;42.80;;;;;;4943873;28;45029;-65
2022/05/26 04:45:19;;;;;;;0.15;0.13;;;25.20;42.80;;;;;;4956040;28;45052;-65
2022/05/26 04:47:44;;;;;;;0.15;0.10;;;25.20;42.80;;;;;;4939634;28;45348;-65
2022/05/26 04:50:11;;;;;;;0.35;0.20;;;25.20;42.80;;;;;;4955741;28;45759;-65
2022/05/26 04:52:37;;;;;;;0.52;0.32;;;25.20;42.80;;;;;;4942094;28;45071;-65
2022/05/26 04:55:04;;;;;;;0.28;0.28;;;25.20;42.80;;;;;;4941140;28;45078;-65
2022/05/26 04:57:29;;;;;;;3.03;0.32;;;25.20;42.80;;;;;;4935914;28;45018;-65
2022/05/26 04:59:55;;;;;;;0.30;0.30;;;25.20;42.80;;;;;;4939690;28;44979;-65
2022/05/26 05:02:21;;;;;;;0.93;0.03;;;25.20;42.80;;;;;;4936980;28;46558;-65
2022/05/26 05:04:48;;;;;;;0.55;0.20;;;25.20;42.80;;;;;;4939531;28;45270;-65
2022/05/26 05:07:17;;;;;;;0.20;0.10;;;25.20;42.80;;;;;;4928882;28;45620;-65
2022/05/26 05:09:43;;;;;;;0.40;0.10;;;25.20;42.80;;;;;;4938012;28;45750;-65
2022/05/26 05:12:12;;;;;;;0.25;0.20;;;25.20;42.80;;;;;;4937930;28;45800;-65
2022/05/26 05:14:43;;;;;;;0.40;0.20;;;25.20;42.70;;;;;;4939263;28;46597;-65
2022/05/26 05:17:09;;;;;;;0.52;0.10;;;25.20;42.60;;;;;;4930718;28;45542;-66
2022/05/26 05:19:35;;;;;;;0.47;0.32;;;25.20;42.60;;;;;;4936934;28;45634;-65
2022/05/26 05:22:29;;;;;;;0.77;0.20;;;25.30;42.70;;;;;;4948881;28;45047;-65
2022/05/26 05:25:07;;;;;;;0.60;0.20;;;25.30;42.50;;;;;;4952253;28;45471;-65
2022/05/26 05:27:37;;;;;;;0.40;0.20;;;25.40;42.40;;;;;;4933066;28;45222;-65
2022/05/26 05:30:06;;;;;;;0.60;0.30;;;25.50;42.10;;;;;;4934136;28;45138;-65
2022/05/26 05:32:38;;;;;;;0.80;0.20;;;25.70;41.70;;;;;;4936066;28;45270;-66
2022/05/26 05:35:08;;;;;;;0.32;0.30;;;25.90;41.30;;;;;;4924257;28;46235;-65
2022/05/26 05:37:34;;;;;;;0.40;0.20;;;26.10;41.10;;;;;;4937071;28;45977;-65
2022/05/26 05:40:00;;;;;;;0.15;0.15;;;26.20;41.00;;;;;;4935832;28;45816;-65
2022/05/26 05:42:26;;;;;;;1.00;0.20;;;26.20;41.10;;;;;;4919416;28;46237;-65
2022/05/26 05:44:52;;;;;;;0.32;0.28;;;26.20;40.90;;;;;;4935539;28;47287;-65
2022/05/26 05:47:18;;;;;;;0.20;0.20;;;26.10;40.90;;;;;;4951162;28;45884;-65
2022/05/26 05:49:44;;;;;;;0.25;0.25;;;26.10;41.10;;;;;;4951161;28;45080;-65
2022/05/26 05:52:16;;;;;;;0.30;0.30;;;26.00;41.10;;;;;;4919849;28;45659;-65
2022/05/26 05:54:42;;;;;;;0.50;0.20;;;25.90;41.20;;;;;;4936219;28;45690;-65
2022/05/26 05:57:07;;;;;;;0.20;0.15;;;25.90;41.20;;;;;;4948583;28;45807;-65
2022/05/26 05:59:33;;;;;;;0.30;0.20;;;25.80;41.40;;;;;;4923546;28;45156;-65
2022/05/26 06:01:58;;;;;;;0.50;0.30;;;25.80;41.40;;;;;;4931775;28;45154;-64
2022/05/26 06:04:24;;;;;;;0.77;0.35;;;25.70;41.40;;;;;;4929327;28;45548;-65
2022/05/26 06:06:50;;;;;;;0.20;0.15;;;25.80;41.50;;;;;;4925244;28;45172;-65
2022/05/26 06:09:16;;;;;;;0.20;0.20;;;25.70;41.50;;;;;;4950814;28;44898;-64
2022/05/26 06:11:42;;;;;;;0.10;0.10;;;25.70;41.50;;;;;;4930531;28;45027;-64
2022/05/26 06:14:08;;;;;;;0.15;0.15;;;25.70;41.50;;;;;;4939748;28;46813;-65
2022/05/26 06:16:33;;;;;;;0.32;0.22;;;25.70;41.50;;;;;;4934568;28;44765;-64
2022/05/26 06:19:00;;;;;;;0.52;0.28;;;25.70;41.50;;;;;;4918632;28;45487;-65
2022/05/26 06:21:25;;;;;;;0.20;0.20;;;25.70;41.50;;;;;;4937008;28;46712;-65
2022/05/26 06:23:52;;;;;;;0.20;0.20;;;25.70;41.60;;;;;;4932503;28;46156;-65
2022/05/26 06:26:17;;;;;;;0.25;0.25;;;25.70;41.60;;;;;;4916944;28;45895;-65
2022/05/26 06:31:27;;;;;;;0.50;0.20;;;25.70;41.50;;;;;;4943715;28;45282;-65
2022/05/26 06:39:20;;;;;;;0.30;0.15;;;25.80;41.50;;;;;;4936031;28;45236;-65
2022/05/26 06:44:30;;;;;;;0.75;0.30;;;25.90;41.30;;;;;;4940462;28;46298;-65
2022/05/26 06:46:56;;;;;;;0.17;0.17;;;25.90;41.20;;;;;;4925518;28;46709;-65
2022/05/26 06:49:22;;;;;;;1.35;0.20;;;25.90;41.20;;;;;;4954460;28;45334;-65
2022/05/26 06:51:47;;;;;;;0.13;0.13;;;25.90;41.10;;;;;;4935797;28;45530;-65
2022/05/26 06:54:13;;;;;;;1.08;0.10;;;26.00;41.10;;;;;;4934702;28;45957;-65
2022/05/26 06:56:38;;;;;;;0.85;0.20;;;26.00;41.10;;;;;;4937404;28;44992;-65
2022/05/26 06:59:04;;;;;;;0.20;0.20;;;26.00;41.10;;;;;;4937842;28;45163;-65
2022/05/26 07:01:30;;;;;;;0.30;0.30;;;26.00;41.10;;;;;;4936639;28;45001;-65
2022/05/26 07:03:56;;;;;;;0.20;0.20;;;26.00;41.10;;;;;;4936494;28;45278;-65
2022/05/26 07:06:23;;;;;;;0.20;0.20;;;26.00;41.20;;;;;;4937972;28;45098;-65
2022/05/26 07:08:49;;;;;;;0.28;0.10;;;25.90;41.10;;;;;;4937542;28;45062;-65
2022/05/26 07:11:14;;;;;;;0.25;0.10;;;25.90;41.10;;;;;;4937504;28;45532;-65
2022/05/26 07:13:40;;;;;;;0.10;0.10;;;25.90;41.20;;;;;;4938579;28;45181;-65
2022/05/26 07:16:07;;;;;;;0.57;0.22;;;25.90;41.10;;;;;;4922391;28;45655;-65
2022/05/26 07:18:33;;;;;;;0.13;0.13;;;25.90;41.20;;;;;;4939675;28;46078;-66
2022/05/26 07:21:02;;;;;;;0.32;0.20;;;25.90;41.20;;;;;;4918369;28;45013;-65
2022/05/26 07:23:29;;;;;;;0.30;0.30;;;25.90;41.20;;;;;;4929382;28;46197;-66
2022/05/26 07:25:55;;;;;;;0.20;0.20;;;25.90;41.20;;;;;;4942385;28;45374;-65
2022/05/26 07:28:23;;;;;;;0.65;0.10;;;25.90;41.20;;;;;;4936266;28;45830;-65
2022/05/26 07:30:49;;;;;;;0.40;0.30;;;25.90;41.20;;;;;;4938727;28;45917;-65
2022/05/26 07:33:15;;;;;;;0.20;0.20;;;25.90;41.20;;;;;;4928617;28;46136;-65
2022/05/26 07:35:41;;;;;;;0.68;0.20;;;25.90;41.10;;;;;;4937044;28;45596;-65
2022/05/26 07:43:35;;;;;;;0.20;0.20;;;25.90;41.10;;;;;;4931610;28;45672;-66
2022/05/26 07:46:01;;;;;;;1.75;0.20;;;25.90;41.20;;;;;;4934372;28;45515;-65
2022/05/26 07:48:27;;;;;;;0.28;0.20;;;25.90;41.20;;;;;;4936132;28;45121;-65
2022/05/26 07:50:52;;;;;;;0.20;0.20;;;25.90;41.10;;;;;;4917449;28;45584;-65
2022/05/26 07:53:18;;;;;;;0.20;0.10;;;25.90;41.20;;;;;;4951703;28;45811;-65
2022/05/26 07:55:44;;;;;;;0.20;0.20;;;25.90;41.10;;;;;;4937573;28;44906;-66
2022/05/26 07:58:10;;;;;;;0.20;0.10;;;25.90;41.10;;;;;;4937769;28;45057;-65
2022/05/26 08:00:36;;;;;;;0.52;0.20;;;25.90;41.10;;;;;;4921806;28;45804;-65
2022/05/26 08:03:02;;;;;;;0.15;0.13;;;25.90;41.10;;;;;;4921019;28;47031;-65
2022/05/26 08:05:27;;;;;;;0.30;0.28;;;25.90;41.10;;;;;;4936218;28;45169;-65
2022/05/26 08:07:53;;;;;;;0.30;0.15;;;25.90;41.10;;;;;;4938287;28;45016;-65
2022/05/26 08:10:19;;;;;;;0.20;0.20;;;25.90;41.10;;;;;;4937206;28;45642;-66
2022/05/26 08:12:44;;;;;;;0.20;0.20;;;25.90;41.20;;;;;;4938777;28;45926;-64
2022/05/26 08:15:10;;;;;;;0.45;0.30;;;25.90;41.10;;;;;;4925643;28;45082;-65
2022/05/26 08:17:36;;;;;;;0.30;0.20;;;25.90;41.20;;;;;;4954850;28;45338;-65
2022/05/26 08:20:02;;;;;;;0.60;0.15;;;25.90;41.10;;;;;;4911403;28;45656;-65
2022/05/26 08:22:28;;;;;;;0.13;0.10;;;25.90;41.20;;;;;;4934186;28;45741;-65
2022/05/26 08:24:55;;;;;;;0.15;0.15;;;25.90;41.20;;;;;;4920336;28;45097;-65
2022/05/26 08:27:21;;;;;;;0.30;0.13;;;25.90;41.10;;;;;;4934095;28;44959;-66
2022/05/26 08:29:46;;;;;;;0.20;0.20;;;25.90;41.20;;;;;;4932421;28;45229;-65
2022/05/26 08:32:13;;;;;;;0.20;0.20;;;25.90;41.00;;;;;;4905925;28;46194;-64
2022/05/26 08:34:39;;;;;;;1.65;0.30;;;25.90;41.00;;;;;;4925220;28;45652;-64
2022/05/26 08:37:05;;;;;;;1.00;0.35;;;25.90;41.00;;;;;;4937043;28;45049;-66
2022/05/26 08:39:31;;;;;;;0.55;0.20;;;25.90;41.10;;;;;;4951556;28;46103;-67
2022/05/26 08:41:57;;;;;;;0.38;0.20;;;25.90;41.00;;;;;;4937268;28;46337;-66
2022/05/26 08:44:28;;;;;;;0.10;0.10;;;25.90;40.90;;;;;;4945923;28;45384;-66
2022/05/26 08:47:15;;;;;;;0.75;0.30;;;26.00;40.80;;;;;;4939835;28;45049;-66
2022/05/26 08:50:07;;;;;;;0.50;0.20;;;26.00;40.80;;;;;;4925442;28;45044;-66
2022/05/26 08:52:35;;;;;;;0.20;0.20;;;26.00;40.80;;;;;;4933555;28;45146;-65
2022/05/26 08:55:08;;;;;;;2.55;0.30;;;25.90;40.90;;;;;;4935843;28;45690;-65
2022/05/26 08:57:36;;;;;;;0.43;0.30;;;25.90;40.90;;;;;;4933830;28;45511;-64
2022/05/26 09:00:02;;;;;;;0.52;0.20;;;26.00;41.00;;;;;;4953730;28;45526;-65
2022/05/26 09:02:35;;;;;;;0.25;0.20;;;26.00;40.90;;;;;;4917961;28;46188;-65
2022/05/26 09:05:21;;;;;;;0.20;0.10;;;26.00;40.70;;;;;;4923573;28;45345;-65
2022/05/26 09:13:53;;;;;;;0.20;0.15;;;26.00;40.80;;;;;;4939812;28;46289;-65
2022/05/26 09:16:19;;;;;;;0.45;0.20;;;26.00;40.80;;;;;;4922933;28;45104;-65
2022/05/26 09:18:45;;;;;;;0.30;0.20;;;26.00;40.70;;;;;;4934556;28;44971;-64
2022/05/26 09:21:24;;;;;;;0.22;0.17;;;26.00;40.70;;;;;;4937268;28;45746;-65
2022/05/26 09:23:50;;;;;;;0.40;0.17;;;26.00;40.60;;;;;;4928739;28;46927;-65
2022/05/26 09:26:18;;;;;;;0.40;0.20;;;26.00;40.70;;;;;;4935352;28;45615;-65
2022/05/26 09:28:48;;;;;;;1.90;0.17;;;26.00;40.70;;;;;;4922360;28;45245;-65
2022/05/26 09:31:28;;;;;;;0.40;0.10;;;26.00;40.60;;;;;;4949792;28;44745;-65
2022/05/26 09:34:10;;;;;;;0.43;0.20;;;26.00;40.40;;;;;;4951165;28;45883;-65
2022/05/26 09:36:48;;;;;;;0.30;0.20;;;26.00;40.60;;;;;;4950834;28;45492;-64
2022/05/26 09:39:24;;;;;;;0.32;0.30;;;26.00;40.40;;;;;;4932971;28;45195;-65
2022/05/26 09:41:54;;;;;;;0.20;0.20;;;26.00;40.60;;;;;;4932463;28;45659;-66
2022/05/26 09:44:35;;;;;;;0.82;0.30;;;26.00;40.50;;;;;;4951433;28;45767;-66
2022/05/26 09:47:18;;;;;;;0.10;0.10;;;26.00;40.60;;;;;;4951160;28;45190;-66
2022/05/26 09:49:47;;;;;;;0.30;0.20;;;26.00;40.40;;;;;;4917728;28;45050;-66
2022/05/26 09:52:18;;;;;;;0.20;0.20;;;26.00;40.50;;;;;;4921849;28;45253;-65
2022/05/26 09:54:44;;;;;;;0.57;0.20;;;26.00;40.40;;;;;;4938462;28;46346;-65
2022/05/26 09:57:21;;;;;;;0.30;0.20;;;26.00;40.50;;;;;;4923699;28;45506;-65
2022/05/26 09:59:47;;;;;;;0.77;0.32;;;26.00;40.40;;;;;;4933820;28;45189;-65
2022/05/26 10:02:22;;;;;;;0.30;0.20;;;26.00;40.40;;;;;;4948674;28;45965;-65
2022/05/26 10:05:09;;;;;;;0.45;0.13;;;26.00;40.40;;;;;;4919251;28;45411;-65
2022/05/26 10:07:48;;;;;;;0.22;0.20;;;26.00;40.40;;;;;;4939576;28;45253;-65
2022/05/26 10:10:17;;;;;;;0.10;0.10;;;26.00;40.20;;;;;;4917434;28;45321;-65
2022/05/26 10:13:03;;;;;;;0.30;0.20;;;26.00;40.30;;;;;;4937309;28;45530;-65
2022/05/26 10:15:37;;;;;;;0.20;0.20;;;26.00;40.30;;;;;;4930895;28;47358;-65
2022/05/26 10:18:20;;;;;;;0.82;0.20;;;26.00;40.40;;;;;;4932780;28;45113;-65
2022/05/26 10:21:07;;;;;;;0.20;0.17;;;26.00;40.20;;;;;;4937736;28;45223;-65
2022/05/26 10:23:46;;;;;;;0.08;0.08;;;26.00;40.00;;;;;;4953446;28;44886;-65
2022/05/26 10:26:41;;;;;;;0.17;0.17;;;26.00;40.20;;;;;;4953600;28;45655;-66
2022/05/26 10:29:17;;;;;;;0.28;0.28;;;26.00;40.10;;;;;;4938214;28;44861;-66
2022/05/26 10:32:21;;;;;;;0.80;0.20;;;26.00;40.40;;;;;;4930304;28;45426;-67
2022/05/26 10:35:11;;;;;;;0.10;0.10;;;26.00;40.20;;;;;;4954723;28;45374;-66
2022/05/26 10:38:02;;;;;;;0.45;0.28;;;26.00;40.20;;;;;;4938674;28;45271;-66
2022/05/26 10:40:51;;;;;;;0.40;0.10;;;26.00;40.40;;;;;;4935089;28;44989;-66
2022/05/26 10:43:20;;;;;;;0.20;0.20;;;25.90;40.40;;;;;;4941979;28;45231;-66
2022/05/26 10:45:52;;;;;;;0.22;0.10;;;26.00;40.60;;;;;;4919244;28;45818;-66
2022/05/26 10:48:43;;;;;;;0.38;0.20;;;26.00;40.40;;;;;;4909145;28;46828;-66
2022/05/26 10:51:18;;;;;;;0.93;0.22;;;26.00;40.40;;;;;;4883914;28;45710;-66
2022/05/26 10:54:08;;;;;;;0.20;0.20;;;26.00;40.50;;;;;;4872342;28;45020;-65
2022/05/26 10:56:46;;;;;;;0.43;0.10;;;26.00;40.20;;;;;;4885288;28;45015;-66
2022/05/26 10:59:37;;;;;;;0.17;0.17;;;26.00;40.30;;;;;;4877735;28;47816;-66
2022/05/26 11:02:18;;;;;;;0.80;0.20;;;26.00;40.20;;;;;;4900938;28;44890;-66
2022/05/26 11:05:05;;;;;;;0.20;0.20;;;26.00;40.30;;;;;;4874798;29;45345;-66
2022/05/26 11:07:38;;;;;;;0.52;0.15;;;26.00;40.30;;;;;;4903688;28;45070;-66
2022/05/26 11:10:19;;;;;;;0.15;0.15;;;26.00;40.30;;;;;;4871573;28;46499;-66
2022/05/26 11:12:51;;;;;;;0.13;0.10;;;26.00;40.40;;;;;;4888262;28;45265;-66
2022/05/26 11:18:14;;;;;;;0.20;0.20;;;25.90;40.30;;;;;;4888601;28;45675;-66
2022/05/26 11:20:53;;;;;;;0.40;0.20;;;26.00;40.40;;;;;;4885369;28;45997;-65
2022/05/26 11:23:20;;;;;;;0.20;0.10;;;26.00;40.30;;;;;;4870177;28;46183;-66
2022/05/26 11:25:51;;;;;;;0.20;0.17;;;26.00;40.30;;;;;;4882908;29;45610;-65
2022/05/26 11:28:41;;;;;;;0.45;0.13;;;26.00;40.90;;;;;;4900752;28;45333;-66
2022/05/26 11:36:54;;;;;;;0.35;0.20;;;26.00;40.40;;;;;;4888329;28;44759;-65
2022/05/26 11:39:23;;;;;;;0.20;0.20;;;26.00;40.30;;;;;;4884770;28;45247;-66
2022/05/26 11:41:54;;;;;;;0.45;0.13;;;26.00;40.40;;;;;;4870119;28;48287;-65
2022/05/26 11:44:36;;;;;;;0.17;0.17;;;26.00;40.40;;;;;;4873669;28;45255;-66
2022/05/26 11:47:21;;;;;;;0.10;0.10;;;26.00;40.30;;;;;;4901423;28;45316;-65
2022/05/26 11:49:49;;;;;;;0.38;0.10;;;26.00;40.40;;;;;;4904068;28;46227;-65
2022/05/26 11:52:24;;;;;;;0.25;0.20;;;25.90;40.40;;;;;;4900579;28;44958;-65
2022/05/26 11:54:57;;;;;;;0.15;0.15;;;26.00;40.40;;;;;;4899552;28;44994;-66
2022/05/26 11:57:41;;;;;;;0.65;0.30;;;25.90;40.30;;;;;;4901025;28;45898;-66
2022/05/26 12:00:17;;;;;;;0.75;0.20;;;25.90;40.40;;;;;;4899974;28;45515;-64
2022/05/26 12:02:43;;;;;;;0.40;0.20;;;26.00;40.50;;;;;;4885272;28;45089;-65
2022/05/26 12:05:31;;;;;;;0.10;0.10;;;26.00;40.50;;;;;;4885160;28;45111;-66
2022/05/26 12:08:00;;;;;;;0.13;0.13;;;26.00;40.50;;;;;;4902422;28;45669;-65
2022/05/26 12:10:36;;;;;;;0.47;0.20;;;26.00;40.60;;;;;;4886405;28;45309;-66
2022/05/26 12:13:20;;;;;;;0.32;0.20;;;26.00;40.60;;;;;;4885579;28;46084;-65
2022/05/26 12:16:14;;;;;;;0.50;0.10;;;26.00;40.50;;;;;;4901976;28;45480;-65
2022/05/26 12:18:48;;;;;;;0.28;0.20;;;26.00;40.40;;;;;;4887408;28;44982;-66
2022/05/26 12:21:17;;;;;;;0.20;0.20;;;25.90;40.40;;;;;;4888686;28;44832;-66
2022/05/26 12:23:42;;;;;;;0.30;0.20;;;26.00;40.40;;;;;;4885718;28;45414;-65
2022/05/26 12:26:51;;;;;;;0.10;0.10;;;26.00;40.40;;;;;;4884161;28;45735;-66
2022/05/26 12:29:48;;;;;;;1.17;0.30;;;26.00;40.30;;;;;;4887052;28;45722;-66
2022/05/26 12:32:34;;;;;;;0.20;0.20;;;26.00;40.50;;;;;;4899790;28;45246;-66
2022/05/26 12:35:00;;;;;;;0.30;0.17;;;26.00;40.50;;;;;;4904469;28;45955;-66
2022/05/26 12:38:01;;;;;;;0.13;0.10;;;26.00;40.60;;;;;;4883975;28;45776;-66
2022/05/26 12:40:49;;;;;;;0.45;0.20;;;26.00;40.40;;;;;;4885158;28;44888;-66
2022/05/26 12:43:36;;;;;;;0.20;0.20;;;26.00;40.40;;;;;;4897377;28;45308;-66
2022/05/26 12:46:16;;;;;;;0.30;0.30;;;26.00;40.50;;;;;;4904417;28;45483;-66
2022/05/26 12:49:06;;;;;;;0.47;0.22;;;26.00;40.50;;;;;;4904561;28;44954;-66
2022/05/26 12:51:36;;;;;;;1.23;0.40;;;26.10;40.50;;;;;;4903071;28;45742;-66
2022/05/26 12:54:01;;;;;;;0.57;0.30;;;26.10;40.50;;;;;;4903404;28;45298;-65
2022/05/26 12:56:37;;;;;;;0.98;0.50;;;26.00;40.50;;;;;;4869998;28;45337;-65
2022/05/26 12:59:03;;;;;;;0.30;0.20;;;26.00;40.40;;;;;;4904162;28;45571;-66
2022/05/26 13:01:29;;;;;;;0.20;0.20;;;26.10;40.60;;;;;;4872831;28;45159;-67
2022/05/26 13:04:13;;;;;;;0.88;0.20;;;26.10;40.60;;;;;;4886779;28;45178;-66
2022/05/26 13:06:41;;;;;;;0.20;0.20;;;26.10;40.40;;;;;;4874289;28;45455;-66
2022/05/26 13:09:19;;;;;;;0.43;0.30;;;26.10;40.60;;;;;;4874125;29;45607;-66
2022/05/26 13:11:52;;;;;;;0.30;0.30;;;26.10;40.40;;;;;;4902714;28;45249;-65
2022/05/26 13:14:28;;;;;;;;;;;26.10;40.50;;;;;;4884744;28;45695;-66
2022/05/26 13:16:58;;;;;;;0.22;0.20;;;26.00;40.60;;;;;;4901797;28;45500;-66
2022/05/26 13:19:23;;;;;;;0.28;0.20;;;26.10;40.60;;;;;;4888846;28;45473;-66
2022/05/26 13:21:54;;;;;;;0.40;0.40;;;26.10;40.60;;;;;;4887395;28;45573;-65
2022/05/26 13:24:28;;;;;;;0.45;0.25;;;26.10;40.60;;;;;;4884730;28;45119;-66
2022/05/26 13:27:01;;;;;;;0.10;0.10;;;26.00;40.50;;;;;;4886428;28;45824;-66
2022/05/26 13:29:27;;;;;;;0.30;0.30;;;26.10;40.70;;;;;;4891150;28;44825;-66
2022/05/26 13:34:47;;;;;;;0.38;0.22;;;26.10;40.70;;;;;;4887313;28;44970;-65
2022/05/26 13:37:27;;;;;;;0.20;0.20;;;26.10;40.60;;;;;;4885515;28;46023;-66
2022/05/26 13:40:22;;;;;;;0.15;0.13;;;26.10;40.50;;;;;;4904654;28;45735;-66
2022/05/26 13:42:49;;;;;;;0.20;0.20;;;26.10;40.60;;;;;;4888912;28;45499;-66
2022/05/26 13:45:27;;;;;;;0.68;0.30;;;26.10;40.60;;;;;;4866232;28;45678;-65
2022/05/26 13:48:30;;;;;;;0.30;0.20;;;26.10;40.50;;;;;;4874762;29;47744;-66
2022/05/26 13:51:08;;;;;;;1.13;0.30;;;26.10;40.50;;;;;;4865025;28;45656;-66
2022/05/26 13:53:58;;;;;;;0.43;0.20;;;26.00;40.60;;;;;;4872987;28;45398;-66
2022/05/26 13:56:28;;;;;;;0.40;0.20;;;26.10;40.70;;;;;;4886502;28;47355;-66
2022/05/26 13:58:55;;;;;;;0.10;0.10;;;26.10;40.80;;;;;;4870428;28;45623;-66
2022/05/26 14:01:23;;;;;;;0.30;0.20;;;26.10;40.70;;;;;;4879597;28;45098;-65
2022/05/26 14:03:58;;;;;;;0.52;0.20;;;26.10;40.70;;;;;;4883151;28;45056;-66
2022/05/26 14:06:34;;;;;;;0.20;0.13;;;26.10;40.70;;;;;;4902527;28;45219;-65
2022/05/26 14:09:01;;;;;;;0.45;0.20;;;26.10;40.70;;;;;;4885409;28;45988;-66
2022/05/26 14:11:41;;;;;;;0.20;0.20;;;26.10;40.80;;;;;;4870464;28;44977;-66
2022/05/26 14:14:35;;;;;;;0.30;0.20;;;26.10;40.60;;;;;;4901999;28;44936;-66
2022/05/26 14:17:00;;;;;;;0.38;0.20;;;26.10;40.50;;;;;;4892752;28;45953;-66
2022/05/26 14:19:37;;;;;;;0.17;0.17;;;26.10;40.60;;;;;;4870707;28;45545;-66
2022/05/26 14:22:03;;;;;;;0.25;0.22;;;26.10;40.60;;;;;;4887000;28;45927;-66
2022/05/26 14:24:41;;;;;;;0.10;0.10;;;26.10;40.70;;;;;;4902096;28;45753;-66
2022/05/26 14:27:18;;;;;;;0.20;0.20;;;26.10;40.60;;;;;;4901099;28;45494;-66
2022/05/26 14:29:58;;;;;;;0.43;0.20;;;26.10;40.50;;;;;;4885171;28;45817;-66
2022/05/26 14:32:38;;;;;;;0.25;0.17;;;26.10;40.60;;;;;;4882198;28;45112;-66
2022/05/26 14:35:15;;;;;;;0.25;0.20;;;26.10;40.70;;;;;;4885047;28;45232;-65
2022/05/26 14:37:41;;;;;;;0.40;0.30;;;26.10;40.60;;;;;;4884550;28;44929;-66
2022/05/26 14:40:07;;;;;;;1.02;0.20;;;26.10;40.70;;;;;;4886144;28;46029;-65
2022/05/26 14:42:34;;;;;;;1.95;0.20;;;26.10;40.80;;;;;;4881903;28;45641;-65
2022/05/26 14:45:00;;;;;;;0.10;0.10;;;26.10;40.70;;;;;;4871537;28;45244;-66
2022/05/26 14:47:26;;;;;;;0.93;0.20;;;26.10;40.80;;;;;;4887899;28;45238;-66
2022/05/26 14:49:52;;;;;;;0.60;0.28;;;26.10;40.90;;;;;;4873214;29;45812;-66
2022/05/26 14:52:19;;;;;;;0.22;0.17;;;26.10;41.10;;;;;;4884287;28;44892;-66
2022/05/26 14:57:29;;;;;;;0.25;0.25;;;26.10;40.90;;;;;;4888021;28;45650;-66
2022/05/26 14:59:54;;;;;;;0.40;0.20;;;26.10;40.90;;;;;;4889045;28;45042;-66
2022/05/26 15:02:20;;;;;;;0.20;0.10;;;26.10;40.80;;;;;;4883518;28;45558;-66
2022/05/26 15:04:45;;;;;;;0.40;0.32;;;26.10;40.80;;;;;;4887028;28;44945;-66
2022/05/26 15:07:12;;;;;;;0.35;0.20;;;26.10;40.90;;;;;;4896140;28;45878;-67
2022/05/26 15:09:38;;;;;;;0.22;0.20;;;26.10;40.90;;;;;;4860951;28;46530;-66
2022/05/26 15:12:04;;;;;;;0.30;0.30;;;26.10;40.80;;;;;;4889900;28;45487;-66
2022/05/26 15:14:32;;;;;;;0.50;0.22;;;26.10;40.90;;;;;;4877226;28;45388;-66
2022/05/26 15:16:59;;;;;;;0.82;0.30;;;26.10;40.90;;;;;;4882765;28;44743;-66
2022/05/26 15:19:29;;;;;;;0.35;0.20;;;26.10;40.90;;;;;;4869183;28;46190;-66
2022/05/26 15:21:56;;;;;;;0.90;0.32;;;26.10;40.90;;;;;;4883506;28;45094;-66
2022/05/26 15:24:22;;;;;;;0.22;0.10;;;26.10;41.00;;;;;;4885506;28;45802;-66
2022/05/26 15:26:48;;;;;;;0.77;0.40;;;26.10;41.00;;;;;;4860780;28;45159;-65
2022/05/26 15:29:13;;;;;;;0.20;0.20;;;26.10;41.00;;;;;;4882613;28;45155;-66
2022/05/26 15:31:39;;;;;;;1.25;0.22;;;26.10;40.90;;;;;;4881454;28;45273;-66
2022/05/26 15:34:05;;;;;;;0.82;0.20;;;26.10;40.90;;;;;;4881271;28;45794;-66
2022/05/26 15:36:31;;;;;;;0.45;0.30;;;26.10;40.90;;;;;;4881207;28;45029;-66
2022/05/26 15:38:58;;;;;;;0.30;0.22;;;26.10;40.90;;;;;;4883652;28;47117;-66
2022/05/26 15:41:23;;;;;;;0.25;0.25;;;26.10;40.90;;;;;;4892173;28;45842;-66
2022/05/26 15:43:49;;;;;;;0.20;0.20;;;26.10;40.90;;;;;;4899517;28;45008;-66
2022/05/26 15:46:21;;;;;;;0.32;0.20;;;26.10;40.80;;;;;;4884111;28;45741;-66
2022/05/26 15:48:47;;;;;;;1.10;0.40;;;26.10;41.40;;;;;;4900376;28;45570;-66
2022/05/26 15:51:12;;;;;;;0.20;0.20;;;26.10;40.80;;;;;;4886525;28;45859;-66
2022/05/26 15:53:38;;;;;;;0.30;0.20;;;26.10;40.80;;;;;;4885637;28;45784;-66
2022/05/26 15:56:05;;;;;;;0.30;0.30;;;26.10;40.90;;;;;;4865469;28;44969;-66
2022/05/26 15:58:31;;;;;;;0.20;0.20;;;26.10;40.90;;;;;;4882858;28;46494;-66
2022/05/26 16:00:58;;;;;;;0.40;0.28;;;26.10;40.90;;;;;;4853420;28;44764;-66
2022/05/26 16:03:24;;;;;;;0.20;0.20;;;26.10;40.80;;;;;;4883595;28;44921;-66
2022/05/26 16:05:50;;;;;;;0.30;0.28;;;26.10;41.50;;;;;;4885554;28;45400;-66
2022/05/26 16:08:16;;;;;;;0.25;0.25;;;26.10;40.80;;;;;;4884997;28;45275;-66
2022/05/26 16:10:41;;;;;;;0.35;0.25;;;26.10;40.90;;;;;;4868222;28;44993;-65
2022/05/26 16:13:07;;;;;;;0.40;0.40;;;26.10;40.80;;;;;;4879488;28;45687;-65
2022/05/26 16:15:33;;;;;;;0.22;0.20;;;26.10;40.90;;;;;;4883810;28;45845;-66
2022/05/26 16:17:59;;;;;;;0.80;0.35;;;26.10;40.80;;;;;;4895315;28;45311;-66
2022/05/26 16:20:25;;;;;;;0.35;0.20;;;26.10;40.90;;;;;;4883774;28;45133;-66
2022/05/26 16:22:53;;;;;;;0.25;0.25;;;26.10;40.90;;;;;;4898472;28;45267;-66
2022/05/26 16:25:19;;;;;;;0.47;0.30;;;26.10;41.00;;;;;;4884367;28;45467;-66
2022/05/26 16:27:45;;;;;;;0.10;0.10;;;26.10;40.90;;;;;;4867485;28;48060;-66
2022/05/26 16:30:13;;;;;;;0.52;0.20;;;26.10;41.00;;;;;;4897154;28;45050;-66
2022/05/26 16:32:39;;;;;;;0.22;0.20;;;26.10;40.90;;;;;;4884557;28;44750;-66
2022/05/26 16:37:54;;;;;;;0.25;0.25;;;26.10;40.90;;;;;;4897484;28;45591;-65
2022/05/26 16:40:20;;;;;;;0.30;0.30;;;26.10;40.90;;;;;;4884109;28;45517;-66
2022/05/26 16:42:46;;;;;;;0.68;0.30;;;26.20;41.00;;;;;;4886712;28;45074;-66
2022/05/26 16:45:12;;;;;;;1.67;0.40;;;26.10;40.90;;;;;;4878411;28;45483;-66
2022/05/26 16:47:38;;;;;;;0.30;0.20;;;26.20;41.00;;;;;;4881564;28;45366;-66
2022/05/26 16:50:04;;;;;;;0.90;0.30;;;26.20;40.90;;;;;;4865312;29;45300;-66
2022/05/26 16:52:30;;;;;;;0.20;0.20;;;26.20;41.00;;;;;;4882930;28;45406;-66
2022/05/26 16:54:55;;;;;;;0.40;0.20;;;26.20;41.00;;;;;;4886351;28;45328;-66